This is the latest recevied weather packets stored in our database for station/object SP3ZBZ-13. If no packets are shown the sender has not sent any weather packets the latest 10 day(s).
| Time | Temp. | Humidity | Pressure | Rain* | Wind** | Luminosity | Snow |
|---|---|---|---|---|---|---|---|
| 1788575161 | 14.44° C | 82% | 1004.4 hPa | 5.33 mm | - | - | - |
| 1788574261 | 14.44° C | 81% | 1004.2 hPa | 5.33 mm | - | - | - |
| 1788573360 | 14.44° C | 81% | 1004 hPa | 5.33 mm | - | - | - |
| 1788572459 | 14.44° C | 82% | 1003.9 hPa | 5.33 mm | - | - | - |
| 1788571558 | 14.44° C | 82% | 1003.7 hPa | 5.33 mm | - | - | - |
| 1788570657 | 13.89° C | 83% | 1003.9 hPa | 5.33 mm | - | - | - |
| 1788569755 | 14.44° C | 84% | 1003.7 hPa | 5.33 mm | - | - | - |
| 1788568855 | 14.44° C | 84% | 1003.5 hPa | 5.33 mm | - | - | - |
| 1788567954 | 14.44° C | 84% | 1003.4 hPa | 5.33 mm | - | - | - |
| 1788567053 | 15° C | 85% | 1003.1 hPa | 5.33 mm | - | - | - |
| 1788566152 | 15° C | 84% | 1002.9 hPa | 5.33 mm | - | - | - |
| 1788565251 | 15° C | 83% | 1002.5 hPa | 5.33 mm | - | - | - |
| 1788564350 | 15.56° C | 92% | 1002.3 hPa | 5.33 mm | - | - | - |
| 1788562544 | 16.67° C | 88% | 1001.5 hPa | 3.81 mm | - | - | - |
| 1788561644 | 16.67° C | 88% | 1001.3 hPa | 3.81 mm | - | - | - |
| 1788560743 | 16.67° C | 88% | 1001.3 hPa | 3.81 mm | - | - | - |
| 1788559841 | 16.67° C | 87% | 1001.1 hPa | 3.81 mm | - | - | - |
| 1788558940 | 17.22° C | 86% | 1000.9 hPa | 3.81 mm | - | - | - |
| 1788558040 | 17.22° C | 86% | 1000.5 hPa | 3.81 mm | - | - | - |
| 1788557139 | 17.22° C | 86% | 1000 hPa | 3.81 mm | - | - | - |
| 1788556238 | 17.78° C | 86% | 999.9 hPa | 3.81 mm | - | - | - |
| 1788555337 | 17.78° C | 86% | 999.8 hPa | 3.81 mm | - | - | - |
| 1788554435 | 18.33° C | 87% | 999.7 hPa | 3.81 mm | - | - | - |
| 1788553534 | 18.33° C | 88% | 999.8 hPa | 3.81 mm | - | - | - |
| 1788552633 | 18.33° C | 90% | 999.8 hPa | 3.81 mm | - | - | - |
* Rain latest 24 hours (hover to see other rain measurements)
** Current wind speed in m/s (hover to see current wind gust speed)